createdAt,value
2023-04-15T00:01:08.240Z,1.40
2023-04-15T00:03:36.471Z,1.70
2023-04-15T00:06:04.296Z,1.85
2023-04-15T00:08:31.425Z,1.60
2023-04-15T00:11:06.006Z,1.50
2023-04-15T00:13:34.974Z,1.58
2023-04-15T00:16:02.882Z,1.55
2023-04-15T00:18:30.590Z,1.60
2023-04-15T00:20:58.976Z,1.83
2023-04-15T00:23:27.185Z,1.40
2023-04-15T00:25:55.040Z,1.35
2023-04-15T00:28:22.620Z,1.50
2023-04-15T00:30:50.814Z,1.55
2023-04-15T00:33:18.484Z,1.40
2023-04-15T00:35:45.961Z,1.58
2023-04-15T00:38:13.310Z,1.58
2023-04-15T00:40:42.723Z,1.65
2023-04-15T00:43:10.005Z,1.88
2023-04-15T00:45:37.517Z,1.98
2023-04-15T00:48:06.058Z,1.50
2023-04-15T00:50:33.756Z,1.60
2023-04-15T00:53:01.411Z,1.90
2023-04-15T00:55:28.694Z,1.63
2023-04-15T00:57:57.221Z,1.50
2023-04-15T01:00:25.036Z,2.03
2023-04-15T01:02:52.207Z,1.33
2023-04-15T01:05:19.779Z,1.60
2023-04-15T01:07:48.197Z,1.60
2023-04-15T01:10:15.607Z,1.60
2023-04-15T01:12:44.764Z,1.70
2023-04-15T01:15:12.197Z,1.58
2023-04-15T01:17:40.195Z,1.75
2023-04-15T01:20:10.768Z,1.50
2023-04-15T01:22:39.553Z,1.40
2023-04-15T01:25:17.933Z,1.20
2023-04-15T01:27:45.647Z,1.20
2023-04-15T01:30:12.892Z,2.28
2023-04-15T01:32:40.454Z,1.67
2023-04-15T01:35:27.232Z,2.42
2023-04-15T01:37:56.931Z,1.42
2023-04-15T01:40:24.068Z,1.83
2023-04-15T01:42:52.632Z,2.13
2023-04-15T01:45:21.370Z,1.83
2023-04-15T01:47:50.575Z,1.60
2023-04-15T01:50:20.548Z,1.63
2023-04-15T01:52:50.038Z,2.20
2023-04-15T01:55:20.020Z,1.70
2023-04-15T01:57:48.538Z,1.58
2023-04-15T02:00:17.765Z,1.70
2023-04-15T02:02:46.317Z,1.42
2023-04-15T02:05:14.856Z,1.52
2023-04-15T02:07:48.745Z,1.92
2023-04-15T02:10:17.311Z,2.15
2023-04-15T02:12:45.597Z,1.33
2023-04-15T02:15:14.488Z,1.75
2023-04-15T02:17:46.158Z,1.75
2023-04-15T02:20:18.102Z,1.70
2023-04-15T02:22:47.321Z,1.90
2023-04-15T02:25:17.366Z,1.83
2023-04-15T02:27:45.846Z,1.70
2023-04-15T02:30:14.551Z,1.75
2023-04-15T02:32:45.427Z,2.35
2023-04-15T02:35:19.333Z,1.80
2023-04-15T02:37:47.762Z,1.58
2023-04-15T02:40:16.300Z,1.85
2023-04-15T02:42:44.998Z,1.63
2023-04-15T02:45:16.330Z,1.30
2023-04-15T02:47:46.132Z,1.65
2023-04-15T02:50:15.332Z,1.70
2023-04-15T02:52:44.905Z,1.83
2023-04-15T02:55:13.596Z,1.95
2023-04-15T02:57:42.377Z,1.63
2023-04-15T03:00:13.052Z,1.73
2023-04-15T03:02:47.509Z,1.70
2023-04-15T03:05:16.439Z,2.00
2023-04-15T03:07:52.772Z,2.30
2023-04-15T03:10:22.129Z,2.90
2023-04-15T03:12:50.924Z,1.92
2023-04-15T03:15:21.730Z,2.58
2023-04-15T03:17:53.463Z,2.13
2023-04-15T03:20:21.914Z,2.00
2023-04-15T03:22:50.609Z,2.30
2023-04-15T03:25:21.125Z,2.00
2023-04-15T03:27:49.556Z,2.20
2023-04-15T03:30:18.840Z,2.35
2023-04-15T03:32:47.645Z,2.38
2023-04-15T03:35:17.349Z,2.00
2023-04-15T03:37:46.029Z,2.10
2023-04-15T03:40:14.557Z,2.08
2023-04-15T03:42:43.155Z,2.13
2023-04-15T03:45:12.022Z,2.50
2023-04-15T03:47:40.843Z,1.90
2023-04-15T03:50:09.554Z,2.00
2023-04-15T03:52:38.044Z,2.20
2023-04-15T03:55:06.962Z,1.80
2023-04-15T03:57:39.438Z,2.40
2023-04-15T04:00:12.806Z,2.47
2023-04-15T04:02:41.937Z,2.38
2023-04-15T04:05:10.831Z,1.80
2023-04-15T04:07:39.362Z,2.10
2023-04-15T04:10:08.681Z,1.80
2023-04-15T04:12:37.296Z,1.70
2023-04-15T04:15:06.948Z,1.95
2023-04-15T04:17:36.074Z,1.95
2023-04-15T04:20:05.875Z,1.67
2023-04-15T04:22:41.633Z,2.13
2023-04-15T04:25:11.358Z,2.08
2023-04-15T04:27:40.094Z,1.75
2023-04-15T04:30:09.066Z,1.90
2023-04-15T04:32:37.828Z,1.85
2023-04-15T04:35:06.316Z,1.55
2023-04-15T04:37:34.803Z,2.05
2023-04-15T04:40:03.510Z,1.60
2023-04-15T04:42:32.010Z,1.80
2023-04-15T04:45:00.421Z,1.85
2023-04-15T04:47:29.028Z,1.60
2023-04-15T04:49:57.441Z,2.17
2023-04-15T04:52:25.838Z,1.92
2023-04-15T04:54:54.567Z,2.17
2023-04-15T04:57:23.157Z,2.22
2023-04-15T04:59:51.908Z,1.70
2023-04-15T05:02:20.751Z,1.67
2023-04-15T05:04:50.541Z,2.13
2023-04-15T05:07:21.051Z,2.00
2023-04-15T05:09:49.754Z,2.13
2023-04-15T05:12:18.552Z,1.63
2023-04-15T05:14:47.285Z,2.17
2023-04-15T05:17:15.946Z,2.00
2023-04-15T05:19:44.628Z,1.90
2023-04-15T05:22:13.112Z,1.80
2023-04-15T05:24:41.815Z,1.67
2023-04-15T05:27:11.770Z,1.92
2023-04-15T05:29:40.256Z,1.80
2023-04-15T05:32:08.751Z,2.35
2023-04-15T05:34:37.423Z,1.60
2023-04-15T05:37:06.084Z,1.60
2023-04-15T05:39:34.902Z,1.73
2023-04-15T05:42:03.749Z,2.15
2023-04-15T05:44:32.493Z,1.77
2023-04-15T05:47:01.075Z,1.45
2023-04-15T05:49:30.015Z,1.92
2023-04-15T05:51:58.687Z,1.50
2023-04-15T05:54:28.040Z,1.67
2023-04-15T05:56:57.846Z,1.85
2023-04-15T05:59:26.385Z,1.80
2023-04-15T06:01:54.983Z,1.73
2023-04-15T06:04:23.537Z,2.05
2023-04-15T06:06:52.388Z,1.58
2023-04-15T06:09:21.068Z,1.55
2023-04-15T06:11:49.421Z,2.22
2023-04-15T06:14:17.775Z,2.25
2023-04-15T06:16:47.142Z,1.85
2023-04-15T06:19:16.267Z,1.70
2023-04-15T06:21:45.330Z,1.65
2023-04-15T06:24:13.859Z,1.75
2023-04-15T06:26:42.387Z,2.20
2023-04-15T06:29:11.128Z,1.83
2023-04-15T06:31:39.463Z,1.67
2023-04-15T06:34:07.931Z,1.60
2023-04-15T06:36:36.233Z,1.63
2023-04-15T06:39:04.868Z,1.52
2023-04-15T06:41:34.356Z,1.90
2023-04-15T06:44:03.660Z,2.42
2023-04-15T06:46:35.609Z,1.60
2023-04-15T06:49:05.538Z,1.90
2023-04-15T06:51:36.168Z,1.75
2023-04-15T06:54:06.410Z,2.10
2023-04-15T06:56:35.186Z,1.50
2023-04-15T06:59:03.906Z,1.70
2023-04-15T07:01:32.533Z,2.42
2023-04-15T07:04:01.489Z,1.83
2023-04-15T07:06:30.022Z,1.83
2023-04-15T07:08:58.808Z,2.33
2023-04-15T07:11:27.789Z,1.88
2023-04-15T07:13:56.412Z,1.65
2023-04-15T07:16:26.212Z,2.00
2023-04-15T07:18:56.324Z,2.10
2023-04-15T07:21:25.908Z,2.00
2023-04-15T07:23:55.101Z,1.50
2023-04-15T07:26:23.807Z,2.22
2023-04-15T07:28:52.467Z,1.75
2023-04-15T07:31:21.355Z,1.80
2023-04-15T07:33:49.921Z,2.25
2023-04-15T07:36:18.923Z,1.80
2023-04-15T07:38:47.799Z,1.35
2023-04-15T07:41:16.574Z,1.70
2023-04-15T07:43:45.467Z,1.77
2023-04-15T07:46:14.475Z,1.63
2023-04-15T07:48:42.938Z,2.30
2023-04-15T07:51:11.499Z,1.63
2023-04-15T07:53:40.107Z,1.83
2023-04-15T07:56:08.563Z,2.22
2023-04-15T07:58:37.501Z,1.98
2023-04-15T08:01:06.178Z,1.98
2023-04-15T08:03:35.100Z,1.70
2023-04-15T08:06:04.130Z,2.33
2023-04-15T08:08:32.807Z,2.15
2023-04-15T08:11:01.937Z,2.38
2023-04-15T08:13:30.697Z,2.03
2023-04-15T08:16:19.061Z,1.80
2023-04-15T08:18:49.005Z,1.98
2023-04-15T08:21:19.103Z,1.48
2023-04-15T08:23:49.927Z,2.30
2023-04-15T08:26:20.002Z,2.13
2023-04-15T08:28:49.577Z,2.10
2023-04-15T08:31:19.519Z,2.38
2023-04-15T08:33:48.418Z,2.08
2023-04-15T08:36:17.775Z,2.72
2023-04-15T08:38:46.446Z,2.10
2023-04-15T08:41:24.022Z,2.22
2023-04-15T08:44:04.262Z,2.22
2023-04-15T08:46:36.658Z,2.20
2023-04-15T08:49:05.939Z,2.58
2023-04-15T08:51:34.925Z,2.00
2023-04-15T08:54:04.967Z,2.38
2023-04-15T08:56:33.564Z,2.00
2023-04-15T12:31:41.413Z,6.75
2023-04-15T12:34:13.426Z,6.38
2023-04-15T12:36:54.817Z,6.00
2023-04-15T12:39:30.866Z,5.88
2023-04-15T12:42:00.637Z,4.93
2023-04-15T12:44:29.026Z,2.83
2023-04-15T12:47:06.328Z,2.63
2023-04-15T12:49:40.886Z,2.55
2023-04-15T12:52:12.011Z,2.35
2023-04-15T12:54:40.011Z,2.17
2023-04-15T12:57:11.473Z,2.33
2023-04-15T12:59:44.267Z,1.73
2023-04-15T13:02:12.096Z,2.45
2023-04-15T13:04:40.863Z,2.25
2023-04-15T13:07:12.130Z,2.30
2023-04-15T13:09:45.138Z,2.03
2023-04-15T13:12:14.766Z,2.17
2023-04-15T13:14:45.347Z,3.28
2023-04-15T13:17:23.908Z,2.47
2023-04-15T13:19:56.964Z,2.50
2023-04-15T13:22:35.604Z,2.83
2023-04-15T13:25:10.738Z,2.70
2023-04-15T13:27:45.512Z,2.63
2023-04-15T13:30:20.729Z,2.03
2023-04-15T13:32:58.318Z,3.10
2023-04-15T13:35:26.552Z,2.67
2023-04-15T13:37:57.783Z,2.30
2023-04-15T13:40:28.669Z,2.78
2023-04-15T13:42:58.903Z,3.50
2023-04-15T13:45:33.182Z,2.30
2023-04-15T13:48:03.041Z,2.20
2023-04-15T13:50:33.847Z,2.70
2023-04-15T13:53:15.175Z,2.25
2023-04-15T13:55:44.106Z,1.88
2023-04-15T13:58:22.191Z,2.20
2023-04-15T14:00:49.651Z,2.53
2023-04-15T14:03:17.250Z,2.40
2023-04-15T14:05:45.514Z,2.38
2023-04-15T14:08:13.365Z,2.58
2023-04-15T14:10:42.069Z,2.13
2023-04-15T14:13:10.158Z,2.17
2023-04-15T14:15:37.342Z,2.20
2023-04-15T14:18:05.060Z,2.30
2023-04-15T14:20:32.568Z,2.25
2023-04-15T14:23:02.454Z,2.53
2023-04-15T14:25:33.603Z,2.33
2023-04-15T14:28:03.613Z,3.03
2023-04-15T14:30:31.090Z,3.35
2023-04-15T14:32:58.610Z,2.10
2023-04-15T14:35:28.997Z,2.63
2023-04-15T14:37:57.605Z,3.10
2023-04-15T14:40:25.394Z,2.42
2023-04-15T14:43:01.031Z,3.00
2023-04-15T14:45:43.622Z,2.08
2023-04-15T14:48:15.077Z,2.30
2023-04-15T14:50:43.924Z,2.28
2023-04-15T14:53:17.956Z,2.30
2023-04-15T14:55:52.988Z,3.25
2023-04-15T14:58:22.977Z,4.18
2023-04-15T15:00:50.588Z,3.83
2023-04-15T15:03:18.473Z,3.63
2023-04-15T15:05:47.393Z,4.32
2023-04-15T15:08:14.981Z,3.55
2023-04-15T15:10:49.010Z,4.13
2023-04-15T15:13:18.356Z,3.80
2023-04-15T15:15:46.015Z,4.60
2023-04-15T15:18:13.578Z,4.80
2023-04-15T15:20:41.004Z,4.60
2023-04-15T15:23:08.489Z,3.67
2023-04-15T15:25:36.102Z,4.07
2023-04-15T15:28:03.492Z,5.18
2023-04-15T15:30:31.192Z,4.78
2023-04-15T15:32:58.760Z,5.00
2023-04-15T15:35:26.684Z,4.63
2023-04-15T15:37:56.909Z,5.03
2023-04-15T15:40:24.202Z,4.20
2023-04-15T15:42:51.951Z,4.65
2023-04-15T15:45:19.518Z,6.13
2023-04-15T15:47:48.234Z,4.03
2023-04-15T15:50:15.690Z,5.43
2023-04-15T15:52:43.543Z,6.70
2023-04-15T15:55:11.174Z,5.35
2023-04-15T15:57:38.417Z,4.00
2023-04-15T16:05:11.155Z,3.58
2023-04-15T16:07:38.320Z,4.30
2023-04-15T16:10:06.168Z,4.85
2023-04-15T16:12:35.049Z,6.28
2023-04-15T16:15:03.152Z,7.32
2023-04-15T16:17:33.146Z,7.57
2023-04-15T16:20:01.389Z,7.15
2023-04-15T16:22:29.972Z,5.28
2023-04-15T16:24:57.295Z,5.97
2023-04-15T16:27:24.667Z,7.72
2023-04-15T16:29:51.983Z,6.45
2023-04-15T16:32:19.339Z,6.13
2023-04-15T16:34:47.606Z,6.53
2023-04-15T16:37:14.834Z,6.38
2023-04-15T16:39:42.281Z,6.22
2023-04-15T16:42:10.888Z,6.25
2023-04-15T16:44:38.442Z,6.18
2023-04-15T16:47:06.267Z,6.72
2023-04-15T16:49:35.692Z,6.85
2023-04-15T16:52:03.169Z,5.10
2023-04-15T16:54:30.586Z,6.43
2023-04-15T16:56:58.777Z,5.70
2023-04-15T16:59:26.134Z,5.35
2023-04-15T17:01:54.765Z,5.05
2023-04-15T17:04:22.659Z,5.93
2023-04-15T17:06:50.328Z,6.65
2023-04-15T17:09:18.118Z,5.28
2023-04-15T17:11:45.947Z,4.60
2023-04-15T17:14:13.359Z,4.88
2023-04-15T17:16:43.597Z,5.28
2023-04-15T17:19:11.584Z,5.28
2023-04-15T17:21:47.541Z,4.63
2023-04-15T17:24:23.532Z,5.88
2023-04-15T17:26:58.423Z,6.88
2023-04-15T17:29:29.851Z,7.65
2023-04-15T17:32:01.152Z,7.35
2023-04-15T17:34:50.680Z,8.57
2023-04-15T17:37:36.641Z,6.35
2023-04-15T17:40:23.896Z,5.25
2023-04-15T17:43:11.331Z,4.72
2023-04-15T17:45:58.935Z,4.32
2023-04-15T17:48:47.576Z,3.95
2023-04-15T17:51:34.991Z,5.10
2023-04-15T17:54:30.814Z,6.55
2023-04-15T17:57:18.004Z,5.95
2023-04-15T18:00:09.371Z,5.47
2023-04-15T18:02:59.837Z,5.65
2023-04-15T18:05:47.231Z,5.45
2023-04-15T18:08:34.451Z,4.78
2023-04-15T18:11:21.756Z,4.82
2023-04-15T18:14:09.011Z,7.00
2023-04-15T18:16:56.580Z,5.60
2023-04-15T18:19:43.791Z,5.97
2023-04-15T18:22:15.228Z,7.10
2023-04-15T18:24:42.596Z,8.65
2023-04-15T18:27:10.092Z,9.13
2023-04-15T18:29:37.658Z,11.00
2023-04-15T18:32:05.314Z,10.50
2023-04-15T18:34:32.650Z,10.52
2023-04-15T18:37:00.117Z,8.85
2023-04-15T18:39:27.946Z,10.13
2023-04-15T18:41:56.456Z,10.35
2023-04-15T18:44:23.851Z,10.10
2023-04-15T18:46:51.268Z,9.77
2023-04-15T18:49:18.758Z,10.63
2023-04-15T18:51:46.599Z,11.57
2023-04-15T18:54:13.894Z,9.93
2023-04-15T18:56:41.776Z,9.35
2023-04-15T18:59:28.757Z,9.48
2023-04-15T19:01:56.894Z,9.38
2023-04-15T19:04:24.280Z,9.82
2023-04-15T19:06:52.160Z,10.23
2023-04-15T19:09:19.608Z,8.07
2023-04-15T19:11:47.874Z,7.03
2023-04-15T19:14:15.604Z,8.32
2023-04-15T19:16:43.426Z,8.43
2023-04-15T19:19:10.974Z,7.57
2023-04-15T19:21:38.664Z,8.23
2023-04-15T19:24:06.457Z,7.28
2023-04-15T19:26:34.208Z,7.07
2023-04-15T19:29:01.604Z,7.70
2023-04-15T19:31:29.234Z,7.00
2023-04-15T19:33:56.950Z,8.45
2023-04-15T19:36:24.530Z,6.90
2023-04-15T19:38:53.277Z,7.57
2023-04-15T19:41:21.051Z,6.90
2023-04-15T19:43:48.659Z,6.60
2023-04-15T19:46:16.324Z,5.85
2023-04-15T19:48:44.047Z,7.35
2023-04-15T19:51:12.142Z,6.82
2023-04-15T19:53:40.897Z,6.57
2023-04-15T19:56:08.275Z,6.80
2023-04-15T19:58:35.989Z,5.82
2023-04-15T20:01:03.127Z,5.22
2023-04-15T20:03:31.269Z,7.03
2023-04-15T20:05:58.811Z,6.80
2023-04-15T20:08:26.238Z,6.40
2023-04-15T20:10:53.432Z,6.60
2023-04-15T20:13:20.600Z,6.53
2023-04-15T20:15:48.376Z,6.50
2023-04-15T20:18:15.729Z,7.10
2023-04-15T20:20:43.297Z,6.43
2023-04-15T20:23:10.627Z,6.70
2023-04-15T20:25:37.952Z,7.25
2023-04-15T20:28:05.286Z,8.30
2023-04-15T20:30:32.956Z,7.75
2023-04-15T20:33:00.794Z,7.57
2023-04-15T20:35:31.117Z,7.85
2023-04-15T20:37:58.936Z,7.00
2023-04-15T20:40:26.981Z,6.85
2023-04-15T20:42:54.352Z,7.00
2023-04-15T20:45:21.742Z,7.90
2023-04-15T20:47:49.300Z,8.00
2023-04-15T20:50:17.081Z,6.85
2023-04-15T20:52:44.379Z,7.60
2023-04-15T20:55:11.657Z,7.35
2023-04-15T20:57:38.950Z,7.10
2023-04-15T21:00:07.129Z,8.20
2023-04-15T21:02:37.590Z,7.38
2023-04-15T21:05:05.538Z,7.20
2023-04-15T21:07:33.256Z,7.25
2023-04-15T21:10:00.852Z,8.10
2023-04-15T21:12:28.197Z,8.15
2023-04-15T21:14:55.786Z,6.65
2023-04-15T21:17:23.107Z,7.00
2023-04-15T21:19:50.307Z,7.20
2023-04-15T21:22:17.593Z,8.60
2023-04-15T21:24:44.890Z,8.10
2023-04-15T21:27:12.335Z,8.57
2023-04-15T21:29:40.527Z,8.10
2023-04-15T21:32:08.054Z,7.28
2023-04-15T21:34:35.702Z,6.55
2023-04-15T21:37:03.102Z,7.28
2023-04-15T21:39:30.503Z,6.05
2023-04-15T21:41:58.164Z,7.20
2023-04-15T21:44:25.451Z,7.72
2023-04-15T21:46:52.829Z,7.13
2023-04-15T21:49:20.631Z,6.90
2023-04-15T21:51:48.285Z,7.05
2023-04-15T21:54:15.865Z,5.32
2023-04-15T21:56:43.448Z,7.03
2023-04-15T21:59:10.880Z,6.63
2023-04-15T22:01:38.314Z,6.78
2023-04-15T22:04:07.538Z,6.75
2023-04-15T22:06:35.169Z,6.90
2023-04-15T22:09:02.566Z,6.18
2023-04-15T22:11:31.047Z,5.50
2023-04-15T22:13:59.609Z,6.60
2023-04-15T22:16:27.172Z,6.53
2023-04-15T22:18:57.531Z,6.25
2023-04-15T22:21:25.302Z,6.70
2023-04-15T22:24:32.963Z,6.82
2023-04-15T22:26:41.009Z,6.15
2023-04-15T22:29:08.524Z,5.55
2023-04-15T22:31:35.881Z,5.20
2023-04-15T22:34:03.527Z,6.07
2023-04-15T22:36:33.898Z,5.97
2023-04-15T22:39:01.206Z,5.22
2023-04-15T22:41:29.013Z,6.32
2023-04-15T22:43:56.329Z,6.22
2023-04-15T22:46:23.724Z,7.07
2023-04-15T22:48:51.199Z,7.35
2023-04-15T22:51:22.885Z,6.90
2023-04-15T22:53:51.090Z,6.78
2023-04-15T22:56:22.495Z,6.45
2023-04-15T22:58:50.370Z,6.53
2023-04-15T23:01:18.201Z,5.85
2023-04-15T23:03:57.554Z,5.72
2023-04-15T23:06:32.645Z,6.75
2023-04-15T23:08:59.996Z,6.07
2023-04-15T23:11:27.341Z,5.85
2023-04-15T23:13:54.919Z,5.60
2023-04-15T23:16:22.936Z,4.93
2023-04-15T23:18:50.213Z,5.75
2023-04-15T23:21:17.402Z,6.03
2023-04-15T23:23:44.819Z,6.80
2023-04-15T23:26:12.307Z,5.47
2023-04-15T23:28:39.554Z,5.20
2023-04-15T23:31:07.108Z,6.07
2023-04-15T23:33:34.638Z,4.50
2023-04-15T23:36:02.144Z,6.18
2023-04-15T23:38:29.464Z,5.90
2023-04-15T23:40:56.960Z,5.25
2023-04-15T23:43:24.403Z,6.47
2023-04-15T23:45:51.981Z,4.53
2023-04-15T23:48:19.508Z,6.85
2023-04-15T23:50:46.657Z,5.70
2023-04-15T23:53:13.834Z,5.38
2023-04-15T23:55:41.439Z,5.45
2023-04-15T23:58:08.668Z,5.38
